sensor_id;sensor_type;location;lat;lon;timestamp;P1;durP1;ratioP1;P2;durP2;ratioP2
32533;SDS011;18973;48.580;8.912;2022-12-18T00:01:35;28.73;;;18.35;;
32533;SDS011;18973;48.580;8.912;2022-12-18T00:04:02;22.88;;;16.90;;
32533;SDS011;18973;48.580;8.912;2022-12-18T00:06:33;18.48;;;13.73;;
32533;SDS011;18973;48.580;8.912;2022-12-18T00:09:00;27.02;;;15.55;;
32533;SDS011;18973;48.580;8.912;2022-12-18T00:11:28;23.90;;;16.10;;
32533;SDS011;18973;48.580;8.912;2022-12-18T00:13:55;50.10;;;22.27;;
32533;SDS011;18973;48.580;8.912;2022-12-18T00:16:23;78.93;;;33.05;;
32533;SDS011;18973;48.580;8.912;2022-12-18T00:18:50;29.23;;;16.38;;
32533;SDS011;18973;48.580;8.912;2022-12-18T00:21:18;25.08;;;16.05;;
32533;SDS011;18973;48.580;8.912;2022-12-18T00:23:45;31.38;;;19.83;;
32533;SDS011;18973;48.580;8.912;2022-12-18T00:26:13;21.27;;;15.98;;
32533;SDS011;18973;48.580;8.912;2022-12-18T00:28:41;17.67;;;15.48;;
32533;SDS011;18973;48.580;8.912;2022-12-18T00:31:09;15.55;;;13.95;;
32533;SDS011;18973;48.580;8.912;2022-12-18T00:33:37;25.48;;;17.83;;
32533;SDS011;18973;48.580;8.912;2022-12-18T00:36:10;19.75;;;15.38;;
32533;SDS011;18973;48.580;8.912;2022-12-18T00:38:37;22.52;;;14.70;;
32533;SDS011;18973;48.580;8.912;2022-12-18T00:41:03;22.05;;;16.15;;
32533;SDS011;18973;48.580;8.912;2022-12-18T00:43:31;19.63;;;15.75;;
32533;SDS011;18973;48.580;8.912;2022-12-18T00:45:57;23.63;;;18.67;;
32533;SDS011;18973;48.580;8.912;2022-12-18T00:48:22;32.45;;;19.25;;
32533;SDS011;18973;48.580;8.912;2022-12-18T00:50:48;31.10;;;19.75;;
32533;SDS011;18973;48.580;8.912;2022-12-18T00:53:15;34.58;;;20.02;;
32533;SDS011;18973;48.580;8.912;2022-12-18T00:55:41;23.17;;;16.77;;
32533;SDS011;18973;48.580;8.912;2022-12-18T00:58:08;31.17;;;19.73;;
32533;SDS011;18973;48.580;8.912;2022-12-18T01:00:34;27.65;;;17.23;;
32533;SDS011;18973;48.580;8.912;2022-12-18T01:03:01;30.15;;;16.60;;
32533;SDS011;18973;48.580;8.912;2022-12-18T01:05:27;33.75;;;19.13;;
32533;SDS011;18973;48.580;8.912;2022-12-18T01:07:53;39.53;;;22.55;;
32533;SDS011;18973;48.580;8.912;2022-12-18T01:10:19;30.23;;;18.02;;
32533;SDS011;18973;48.580;8.912;2022-12-18T01:12:45;41.55;;;20.92;;
32533;SDS011;18973;48.580;8.912;2022-12-18T01:15:12;21.45;;;17.55;;
32533;SDS011;18973;48.580;8.912;2022-12-18T01:17:38;25.92;;;17.25;;
32533;SDS011;18973;48.580;8.912;2022-12-18T01:20:04;24.00;;;16.77;;
32533;SDS011;18973;48.580;8.912;2022-12-18T01:22:30;21.00;;;16.67;;
32533;SDS011;18973;48.580;8.912;2022-12-18T01:24:56;23.17;;;18.20;;
32533;SDS011;18973;48.580;8.912;2022-12-18T01:27:22;21.10;;;15.30;;
32533;SDS011;18973;48.580;8.912;2022-12-18T01:29:48;21.80;;;16.67;;
32533;SDS011;18973;48.580;8.912;2022-12-18T01:32:14;26.13;;;16.02;;
32533;SDS011;18973;48.580;8.912;2022-12-18T01:34:40;27.83;;;16.20;;
32533;SDS011;18973;48.580;8.912;2022-12-18T01:37:06;16.90;;;15.02;;
32533;SDS011;18973;48.580;8.912;2022-12-18T01:39:32;22.25;;;16.52;;
32533;SDS011;18973;48.580;8.912;2022-12-18T01:41:58;22.55;;;15.32;;
32533;SDS011;18973;48.580;8.912;2022-12-18T01:49:49;19.10;;;15.93;;
32533;SDS011;18973;48.580;8.912;2022-12-18T01:52:15;23.60;;;17.90;;
32533;SDS011;18973;48.580;8.912;2022-12-18T01:54:42;18.48;;;15.40;;
32533;SDS011;18973;48.580;8.912;2022-12-18T01:57:09;22.08;;;14.63;;
32533;SDS011;18973;48.580;8.912;2022-12-18T01:59:36;24.75;;;15.23;;
32533;SDS011;18973;48.580;8.912;2022-12-18T02:02:03;15.60;;;13.73;;
32533;SDS011;18973;48.580;8.912;2022-12-18T02:04:29;19.63;;;15.02;;
32533;SDS011;18973;48.580;8.912;2022-12-18T02:06:55;19.65;;;16.08;;
32533;SDS011;18973;48.580;8.912;2022-12-18T02:09:41;22.63;;;16.30;;
32533;SDS011;18973;48.580;8.912;2022-12-18T02:12:13;19.70;;;15.57;;
32533;SDS011;18973;48.580;8.912;2022-12-18T02:14:55;21.58;;;16.52;;
32533;SDS011;18973;48.580;8.912;2022-12-18T02:18:05;18.23;;;15.40;;
32533;SDS011;18973;48.580;8.912;2022-12-18T02:28:46;19.60;;;15.88;;
32533;SDS011;18973;48.580;8.912;2022-12-18T02:31:16;21.23;;;15.95;;
32533;SDS011;18973;48.580;8.912;2022-12-18T02:33:46;23.60;;;15.77;;
32533;SDS011;18973;48.580;8.912;2022-12-18T02:36:14;25.08;;;17.00;;
32533;SDS011;18973;48.580;8.912;2022-12-18T02:38:42;22.00;;;16.05;;
32533;SDS011;18973;48.580;8.912;2022-12-18T02:41:08;24.10;;;16.38;;
32533;SDS011;18973;48.580;8.912;2022-12-18T02:43:36;27.08;;;17.20;;
32533;SDS011;18973;48.580;8.912;2022-12-18T02:46:20;21.67;;;15.10;;
32533;SDS011;18973;48.580;8.912;2022-12-18T02:48:50;24.73;;;15.23;;
32533;SDS011;18973;48.580;8.912;2022-12-18T02:51:23;24.40;;;15.38;;
32533;SDS011;18973;48.580;8.912;2022-12-18T02:53:58;23.38;;;16.58;;
32533;SDS011;18973;48.580;8.912;2022-12-18T02:56:37;20.63;;;16.08;;
32533;SDS011;18973;48.580;8.912;2022-12-18T02:59:11;20.58;;;15.55;;
32533;SDS011;18973;48.580;8.912;2022-12-18T03:01:51;24.08;;;15.82;;
32533;SDS011;18973;48.580;8.912;2022-12-18T03:04:20;24.95;;;15.70;;
32533;SDS011;18973;48.580;8.912;2022-12-18T03:06:49;21.75;;;16.42;;
32533;SDS011;18973;48.580;8.912;2022-12-18T03:09:19;23.98;;;16.75;;
32533;SDS011;18973;48.580;8.912;2022-12-18T03:11:52;16.75;;;14.80;;
32533;SDS011;18973;48.580;8.912;2022-12-18T03:14:40;25.38;;;15.35;;
32533;SDS011;18973;48.580;8.912;2022-12-18T03:17:10;23.27;;;16.77;;
32533;SDS011;18973;48.580;8.912;2022-12-18T03:19:38;19.80;;;16.23;;
32533;SDS011;18973;48.580;8.912;2022-12-18T03:22:06;23.75;;;15.68;;
32533;SDS011;18973;48.580;8.912;2022-12-18T03:24:33;26.55;;;15.73;;
32533;SDS011;18973;48.580;8.912;2022-12-18T03:27:02;23.13;;;15.05;;
32533;SDS011;18973;48.580;8.912;2022-12-18T03:32:09;30.40;;;17.45;;
32533;SDS011;18973;48.580;8.912;2022-12-18T03:34:38;19.63;;;14.23;;
32533;SDS011;18973;48.580;8.912;2022-12-18T03:37:06;34.13;;;17.65;;
32533;SDS011;18973;48.580;8.912;2022-12-18T03:39:33;20.60;;;16.40;;
32533;SDS011;18973;48.580;8.912;2022-12-18T03:44:56;26.15;;;16.52;;
32533;SDS011;18973;48.580;8.912;2022-12-18T03:47:34;24.55;;;16.02;;
32533;SDS011;18973;48.580;8.912;2022-12-18T03:50:41;22.38;;;15.95;;
32533;SDS011;18973;48.580;8.912;2022-12-18T03:56:00;26.45;;;16.38;;
32533;SDS011;18973;48.580;8.912;2022-12-18T03:58:26;31.38;;;15.88;;
32533;SDS011;18973;48.580;8.912;2022-12-18T04:00:54;24.92;;;17.08;;
32533;SDS011;18973;48.580;8.912;2022-12-18T04:03:24;29.90;;;17.45;;
32533;SDS011;18973;48.580;8.912;2022-12-18T04:05:54;21.70;;;17.67;;
32533;SDS011;18973;48.580;8.912;2022-12-18T04:08:20;21.42;;;15.98;;
32533;SDS011;18973;48.580;8.912;2022-12-18T04:10:47;30.58;;;17.45;;
32533;SDS011;18973;48.580;8.912;2022-12-18T04:13:13;28.08;;;15.40;;
32533;SDS011;18973;48.580;8.912;2022-12-18T04:15:52;29.02;;;17.80;;
32533;SDS011;18973;48.580;8.912;2022-12-18T04:18:18;26.33;;;16.60;;
32533;SDS011;18973;48.580;8.912;2022-12-18T04:20:44;22.55;;;15.50;;
32533;SDS011;18973;48.580;8.912;2022-12-18T04:23:10;33.75;;;17.05;;
32533;SDS011;18973;48.580;8.912;2022-12-18T04:25:35;29.42;;;16.65;;
32533;SDS011;18973;48.580;8.912;2022-12-18T04:28:01;29.42;;;16.83;;
32533;SDS011;18973;48.580;8.912;2022-12-18T04:30:27;33.47;;;19.42;;
32533;SDS011;18973;48.580;8.912;2022-12-18T04:32:55;20.67;;;15.63;;
32533;SDS011;18973;48.580;8.912;2022-12-18T04:35:21;27.65;;;17.35;;
32533;SDS011;18973;48.580;8.912;2022-12-18T04:37:47;22.98;;;15.40;;
32533;SDS011;18973;48.580;8.912;2022-12-18T04:40:12;31.52;;;16.20;;
32533;SDS011;18973;48.580;8.912;2022-12-18T04:42:39;27.25;;;15.98;;
32533;SDS011;18973;48.580;8.912;2022-12-18T04:45:05;30.42;;;16.52;;
32533;SDS011;18973;48.580;8.912;2022-12-18T04:47:32;31.95;;;16.75;;
32533;SDS011;18973;48.580;8.912;2022-12-18T04:49:57;31.17;;;16.88;;
32533;SDS011;18973;48.580;8.912;2022-12-18T04:52:23;20.88;;;15.95;;
32533;SDS011;18973;48.580;8.912;2022-12-18T04:54:49;26.15;;;15.95;;
32533;SDS011;18973;48.580;8.912;2022-12-18T04:57:14;26.65;;;15.68;;
32533;SDS011;18973;48.580;8.912;2022-12-18T04:59:40;36.55;;;15.93;;
32533;SDS011;18973;48.580;8.912;2022-12-18T05:02:06;24.50;;;17.08;;
32533;SDS011;18973;48.580;8.912;2022-12-18T05:04:31;22.92;;;14.93;;
32533;SDS011;18973;48.580;8.912;2022-12-18T05:06:57;37.22;;;18.23;;
32533;SDS011;18973;48.580;8.912;2022-12-18T05:09:23;18.42;;;14.90;;
32533;SDS011;18973;48.580;8.912;2022-12-18T05:11:48;31.50;;;15.25;;
32533;SDS011;18973;48.580;8.912;2022-12-18T05:14:14;28.90;;;14.98;;
32533;SDS011;18973;48.580;8.912;2022-12-18T05:16:40;21.40;;;15.68;;
32533;SDS011;18973;48.580;8.912;2022-12-18T05:19:06;20.23;;;14.15;;
32533;SDS011;18973;48.580;8.912;2022-12-18T05:21:31;23.17;;;14.20;;
32533;SDS011;18973;48.580;8.912;2022-12-18T05:23:57;17.52;;;14.50;;
32533;SDS011;18973;48.580;8.912;2022-12-18T05:26:23;28.65;;;17.98;;
32533;SDS011;18973;48.580;8.912;2022-12-18T05:28:48;24.73;;;15.52;;
32533;SDS011;18973;48.580;8.912;2022-12-18T05:31:14;22.85;;;16.88;;
32533;SDS011;18973;48.580;8.912;2022-12-18T05:33:40;32.83;;;15.88;;
32533;SDS011;18973;48.580;8.912;2022-12-18T05:36:06;22.88;;;16.75;;
32533;SDS011;18973;48.580;8.912;2022-12-18T05:38:34;22.08;;;16.13;;
32533;SDS011;18973;48.580;8.912;2022-12-18T05:41:01;21.77;;;14.13;;
32533;SDS011;18973;48.580;8.912;2022-12-18T05:43:27;30.88;;;17.02;;
32533;SDS011;18973;48.580;8.912;2022-12-18T05:45:54;22.80;;;15.35;;
32533;SDS011;18973;48.580;8.912;2022-12-18T05:48:20;31.48;;;16.73;;
32533;SDS011;18973;48.580;8.912;2022-12-18T05:50:47;26.38;;;18.10;;
32533;SDS011;18973;48.580;8.912;2022-12-18T05:53:14;22.77;;;14.88;;
32533;SDS011;18973;48.580;8.912;2022-12-18T05:55:41;23.17;;;15.95;;
32533;SDS011;18973;48.580;8.912;2022-12-18T05:58:08;24.95;;;16.08;;
32533;SDS011;18973;48.580;8.912;2022-12-18T06:00:38;15.52;;;12.52;;
32533;SDS011;18973;48.580;8.912;2022-12-18T06:03:09;17.25;;;14.63;;
32533;SDS011;18973;48.580;8.912;2022-12-18T06:05:36;22.48;;;16.48;;
32533;SDS011;18973;48.580;8.912;2022-12-18T06:08:02;29.02;;;14.15;;
32533;SDS011;18973;48.580;8.912;2022-12-18T06:10:28;19.05;;;15.70;;
32533;SDS011;18973;48.580;8.912;2022-12-18T06:12:54;27.70;;;15.13;;
32533;SDS011;18973;48.580;8.912;2022-12-18T06:15:20;27.13;;;15.75;;
32533;SDS011;18973;48.580;8.912;2022-12-18T06:17:45;30.52;;;18.27;;
32533;SDS011;18973;48.580;8.912;2022-12-18T06:20:11;33.50;;;18.35;;
32533;SDS011;18973;48.580;8.912;2022-12-18T06:22:36;28.58;;;14.57;;
32533;SDS011;18973;48.580;8.912;2022-12-18T06:25:02;32.65;;;14.90;;
32533;SDS011;18973;48.580;8.912;2022-12-18T06:27:28;24.02;;;15.27;;
32533;SDS011;18973;48.580;8.912;2022-12-18T06:29:54;32.05;;;17.65;;
32533;SDS011;18973;48.580;8.912;2022-12-18T06:32:20;21.60;;;14.93;;
32533;SDS011;18973;48.580;8.912;2022-12-18T06:34:45;30.27;;;18.35;;
32533;SDS011;18973;48.580;8.912;2022-12-18T06:37:11;26.27;;;18.80;;
32533;SDS011;18973;48.580;8.912;2022-12-18T06:39:37;19.35;;;15.02;;
32533;SDS011;18973;48.580;8.912;2022-12-18T06:42:03;30.55;;;19.63;;
32533;SDS011;18973;48.580;8.912;2022-12-18T06:44:28;25.02;;;14.75;;
32533;SDS011;18973;48.580;8.912;2022-12-18T06:46:54;25.90;;;15.00;;
32533;SDS011;18973;48.580;8.912;2022-12-18T06:49:20;27.20;;;16.52;;
32533;SDS011;18973;48.580;8.912;2022-12-18T06:51:46;34.13;;;16.88;;
32533;SDS011;18973;48.580;8.912;2022-12-18T06:54:12;33.38;;;19.42;;
32533;SDS011;18973;48.580;8.912;2022-12-18T06:56:38;31.85;;;18.80;;
32533;SDS011;18973;48.580;8.912;2022-12-18T06:59:03;24.95;;;19.38;;
32533;SDS011;18973;48.580;8.912;2022-12-18T07:01:29;28.50;;;19.52;;
32533;SDS011;18973;48.580;8.912;2022-12-18T07:03:55;33.45;;;19.90;;
32533;SDS011;18973;48.580;8.912;2022-12-18T07:06:23;35.20;;;21.92;;
32533;SDS011;18973;48.580;8.912;2022-12-18T07:08:51;43.20;;;20.45;;
32533;SDS011;18973;48.580;8.912;2022-12-18T07:11:18;26.60;;;17.13;;
32533;SDS011;18973;48.580;8.912;2022-12-18T07:13:44;34.22;;;20.65;;
32533;SDS011;18973;48.580;8.912;2022-12-18T07:16:12;25.77;;;16.27;;
32533;SDS011;18973;48.580;8.912;2022-12-18T07:18:39;39.17;;;20.83;;
32533;SDS011;18973;48.580;8.912;2022-12-18T07:21:05;32.00;;;20.77;;
32533;SDS011;18973;48.580;8.912;2022-12-18T07:23:33;38.88;;;20.42;;
32533;SDS011;18973;48.580;8.912;2022-12-18T07:26:00;31.17;;;20.55;;
32533;SDS011;18973;48.580;8.912;2022-12-18T07:28:30;43.65;;;21.63;;
32533;SDS011;18973;48.580;8.912;2022-12-18T07:30:57;37.10;;;19.65;;
32533;SDS011;18973;48.580;8.912;2022-12-18T07:33:23;34.78;;;20.23;;
32533;SDS011;18973;48.580;8.912;2022-12-18T07:35:50;30.45;;;18.15;;
32533;SDS011;18973;48.580;8.912;2022-12-18T07:38:15;31.98;;;19.55;;
32533;SDS011;18973;48.580;8.912;2022-12-18T07:40:41;28.30;;;16.50;;
32533;SDS011;18973;48.580;8.912;2022-12-18T07:43:06;32.25;;;18.33;;
32533;SDS011;18973;48.580;8.912;2022-12-18T07:45:32;36.95;;;17.25;;
32533;SDS011;18973;48.580;8.912;2022-12-18T07:47:58;35.00;;;20.05;;
32533;SDS011;18973;48.580;8.912;2022-12-18T07:50:23;38.75;;;19.55;;
32533;SDS011;18973;48.580;8.912;2022-12-18T07:52:49;26.05;;;17.17;;
32533;SDS011;18973;48.580;8.912;2022-12-18T07:55:15;29.05;;;17.33;;
32533;SDS011;18973;48.580;8.912;2022-12-18T07:57:40;27.80;;;16.98;;
32533;SDS011;18973;48.580;8.912;2022-12-18T08:00:06;32.22;;;18.42;;
32533;SDS011;18973;48.580;8.912;2022-12-18T08:02:33;21.70;;;15.00;;
32533;SDS011;18973;48.580;8.912;2022-12-18T08:04:58;31.23;;;18.25;;
32533;SDS011;18973;48.580;8.912;2022-12-18T08:07:24;58.00;;;25.27;;
32533;SDS011;18973;48.580;8.912;2022-12-18T08:09:50;50.22;;;24.10;;
32533;SDS011;18973;48.580;8.912;2022-12-18T08:12:15;35.50;;;20.00;;
32533;SDS011;18973;48.580;8.912;2022-12-18T08:14:41;36.28;;;20.58;;
32533;SDS011;18973;48.580;8.912;2022-12-18T08:17:07;31.85;;;18.92;;
32533;SDS011;18973;48.580;8.912;2022-12-18T08:19:32;30.75;;;19.92;;
32533;SDS011;18973;48.580;8.912;2022-12-18T08:21:58;22.48;;;16.08;;
32533;SDS011;18973;48.580;8.912;2022-12-18T08:24:24;26.70;;;18.45;;
32533;SDS011;18973;48.580;8.912;2022-12-18T08:26:50;29.33;;;17.98;;
32533;SDS011;18973;48.580;8.912;2022-12-18T08:29:16;32.97;;;18.40;;
32533;SDS011;18973;48.580;8.912;2022-12-18T08:31:42;23.58;;;19.95;;
32533;SDS011;18973;48.580;8.912;2022-12-18T08:34:08;31.17;;;18.13;;
32533;SDS011;18973;48.580;8.912;2022-12-18T08:36:33;33.63;;;19.60;;
32533;SDS011;18973;48.580;8.912;2022-12-18T08:38:59;36.28;;;20.15;;
32533;SDS011;18973;48.580;8.912;2022-12-18T08:41:25;28.65;;;18.25;;
32533;SDS011;18973;48.580;8.912;2022-12-18T08:43:51;24.52;;;16.45;;
32533;SDS011;18973;48.580;8.912;2022-12-18T08:46:36;27.20;;;16.75;;
32533;SDS011;18973;48.580;8.912;2022-12-18T08:49:04;35.25;;;20.45;;
32533;SDS011;18973;48.580;8.912;2022-12-18T08:51:30;24.02;;;16.63;;
32533;SDS011;18973;48.580;8.912;2022-12-18T08:53:56;26.35;;;16.33;;
32533;SDS011;18973;48.580;8.912;2022-12-18T08:56:22;23.75;;;14.73;;
32533;SDS011;18973;48.580;8.912;2022-12-18T08:58:51;38.38;;;20.35;;
32533;SDS011;18973;48.580;8.912;2022-12-18T09:01:17;24.52;;;16.17;;
32533;SDS011;18973;48.580;8.912;2022-12-18T09:03:43;25.33;;;13.68;;
32533;SDS011;18973;48.580;8.912;2022-12-18T09:06:08;24.48;;;12.75;;
32533;SDS011;18973;48.580;8.912;2022-12-18T09:08:38;20.13;;;12.50;;
32533;SDS011;18973;48.580;8.912;2022-12-18T09:11:03;24.85;;;14.75;;
32533;SDS011;18973;48.580;8.912;2022-12-18T09:13:29;19.83;;;13.98;;
32533;SDS011;18973;48.580;8.912;2022-12-18T09:15:55;19.73;;;12.15;;
32533;SDS011;18973;48.580;8.912;2022-12-18T09:18:21;16.45;;;11.85;;
32533;SDS011;18973;48.580;8.912;2022-12-18T09:20:48;16.30;;;12.48;;
32533;SDS011;18973;48.580;8.912;2022-12-18T09:23:15;17.30;;;11.80;;
32533;SDS011;18973;48.580;8.912;2022-12-18T09:25:41;29.88;;;15.07;;
32533;SDS011;18973;48.580;8.912;2022-12-18T09:28:11;15.38;;;11.23;;
32533;SDS011;18973;48.580;8.912;2022-12-18T09:30:39;28.65;;;13.77;;
32533;SDS011;18973;48.580;8.912;2022-12-18T09:33:06;25.30;;;13.90;;
32533;SDS011;18973;48.580;8.912;2022-12-18T09:35:32;17.27;;;11.55;;
32533;SDS011;18973;48.580;8.912;2022-12-18T09:38:00;16.08;;;11.48;;
32533;SDS011;18973;48.580;8.912;2022-12-18T09:40:27;19.17;;;12.50;;
32533;SDS011;18973;48.580;8.912;2022-12-18T09:42:59;22.20;;;13.70;;
32533;SDS011;18973;48.580;8.912;2022-12-18T09:45:28;22.23;;;12.07;;
32533;SDS011;18973;48.580;8.912;2022-12-18T09:47:59;22.95;;;12.85;;
32533;SDS011;18973;48.580;8.912;2022-12-18T09:50:35;19.60;;;12.07;;
32533;SDS011;18973;48.580;8.912;2022-12-18T09:53:10;17.65;;;14.40;;
32533;SDS011;18973;48.580;8.912;2022-12-18T09:55:44;23.40;;;13.43;;
32533;SDS011;18973;48.580;8.912;2022-12-18T10:00:50;25.83;;;12.60;;
32533;SDS011;18973;48.580;8.912;2022-12-18T10:03:17;28.40;;;14.20;;
32533;SDS011;18973;48.580;8.912;2022-12-18T10:05:47;20.33;;;13.13;;
32533;SDS011;18973;48.580;8.912;2022-12-18T10:13:46;20.65;;;11.85;;
32533;SDS011;18973;48.580;8.912;2022-12-18T10:25:39;23.60;;;13.35;;
32533;SDS011;18973;48.580;8.912;2022-12-18T10:27:57;25.45;;;12.80;;
32533;SDS011;18973;48.580;8.912;2022-12-18T10:30:29;16.67;;;9.93;;
32533;SDS011;18973;48.580;8.912;2022-12-18T10:32:59;19.30;;;13.48;;
32533;SDS011;18973;48.580;8.912;2022-12-18T10:35:26;23.45;;;13.20;;
32533;SDS011;18973;48.580;8.912;2022-12-18T10:38:03;26.17;;;15.25;;
32533;SDS011;18973;48.580;8.912;2022-12-18T10:43:16;18.80;;;13.30;;
32533;SDS011;18973;48.580;8.912;2022-12-18T10:46:28;23.63;;;13.88;;
32533;SDS011;18973;48.580;8.912;2022-12-18T10:48:49;21.42;;;10.70;;
32533;SDS011;18973;48.580;8.912;2022-12-18T10:53:51;24.08;;;14.95;;
32533;SDS011;18973;48.580;8.912;2022-12-18T10:56:24;33.35;;;16.00;;
32533;SDS011;18973;48.580;8.912;2022-12-18T10:59:05;22.40;;;12.57;;
32533;SDS011;18973;48.580;8.912;2022-12-18T11:01:49;24.27;;;13.98;;
32533;SDS011;18973;48.580;8.912;2022-12-18T11:06:57;28.35;;;16.40;;
32533;SDS011;18973;48.580;8.912;2022-12-18T11:09:24;23.08;;;12.52;;
32533;SDS011;18973;48.580;8.912;2022-12-18T11:11:58;23.23;;;13.77;;
32533;SDS011;18973;48.580;8.912;2022-12-18T11:14:32;22.55;;;13.75;;
32533;SDS011;18973;48.580;8.912;2022-12-18T11:17:16;22.98;;;13.93;;
32533;SDS011;18973;48.580;8.912;2022-12-18T11:20:02;25.00;;;14.93;;
32533;SDS011;18973;48.580;8.912;2022-12-18T11:22:44;33.38;;;18.52;;
32533;SDS011;18973;48.580;8.912;2022-12-18T11:25:24;26.95;;;14.10;;
32533;SDS011;18973;48.580;8.912;2022-12-18T11:28:00;21.13;;;12.75;;
32533;SDS011;18973;48.580;8.912;2022-12-18T11:30:29;20.48;;;11.35;;
32533;SDS011;18973;48.580;8.912;2022-12-18T11:33:06;29.88;;;13.75;;
32533;SDS011;18973;48.580;8.912;2022-12-18T11:40:47;19.38;;;12.82;;
32533;SDS011;18973;48.580;8.912;2022-12-18T11:43:53;26.98;;;13.45;;
32533;SDS011;18973;48.580;8.912;2022-12-18T11:46:17;22.83;;;13.77;;
32533;SDS011;18973;48.580;8.912;2022-12-18T11:51:26;26.48;;;14.00;;
32533;SDS011;18973;48.580;8.912;2022-12-18T11:53:58;25.70;;;13.50;;
32533;SDS011;18973;48.580;8.912;2022-12-18T11:56:35;26.13;;;14.35;;
32533;SDS011;18973;48.580;8.912;2022-12-18T12:02:04;24.92;;;13.90;;
32533;SDS011;18973;48.580;8.912;2022-12-18T12:10:29;23.92;;;12.02;;
32533;SDS011;18973;48.580;8.912;2022-12-18T12:13:06;25.27;;;13.00;;
32533;SDS011;18973;48.580;8.912;2022-12-18T12:16:03;18.65;;;11.55;;
32533;SDS011;18973;48.580;8.912;2022-12-18T12:40:30;20.58;;;11.00;;
32533;SDS011;18973;48.580;8.912;2022-12-18T12:43:01;15.98;;;11.32;;
32533;SDS011;18973;48.580;8.912;2022-12-18T12:48:35;22.70;;;14.18;;
32533;SDS011;18973;48.580;8.912;2022-12-18T12:51:38;21.92;;;13.00;;
32533;SDS011;18973;48.580;8.912;2022-12-18T12:54:11;27.52;;;16.00;;
32533;SDS011;18973;48.580;8.912;2022-12-18T12:57:05;25.33;;;14.77;;
32533;SDS011;18973;48.580;8.912;2022-12-18T12:59:47;24.10;;;13.65;;
32533;SDS011;18973;48.580;8.912;2022-12-18T13:02:28;23.33;;;14.80;;
32533;SDS011;18973;48.580;8.912;2022-12-18T13:07:54;36.78;;;18.05;;
32533;SDS011;18973;48.580;8.912;2022-12-18T13:10:25;20.92;;;15.65;;
32533;SDS011;18973;48.580;8.912;2022-12-18T13:18:04;18.85;;;13.73;;
32533;SDS011;18973;48.580;8.912;2022-12-18T13:20:34;25.33;;;13.57;;
32533;SDS011;18973;48.580;8.912;2022-12-18T13:25:50;20.20;;;13.63;;
32533;SDS011;18973;48.580;8.912;2022-12-18T13:40:56;19.83;;;11.50;;
32533;SDS011;18973;48.580;8.912;2022-12-18T13:43:24;23.55;;;13.98;;
32533;SDS011;18973;48.580;8.912;2022-12-18T13:51:38;32.85;;;15.50;;
32533;SDS011;18973;48.580;8.912;2022-12-18T13:56:45;19.30;;;12.88;;
32533;SDS011;18973;48.580;8.912;2022-12-18T13:59:14;24.02;;;13.23;;
32533;SDS011;18973;48.580;8.912;2022-12-18T14:06:54;16.63;;;12.48;;
32533;SDS011;18973;48.580;8.912;2022-12-18T14:09:33;18.73;;;12.23;;
32533;SDS011;18973;48.580;8.912;2022-12-18T14:12:02;30.25;;;14.98;;
32533;SDS011;18973;48.580;8.912;2022-12-18T14:17:13;15.30;;;12.32;;
32533;SDS011;18973;48.580;8.912;2022-12-18T14:19:41;18.27;;;11.73;;
32533;SDS011;18973;48.580;8.912;2022-12-18T14:22:21;21.75;;;12.15;;
32533;SDS011;18973;48.580;8.912;2022-12-18T14:27:49;22.48;;;13.98;;
32533;SDS011;18973;48.580;8.912;2022-12-18T14:30:27;19.75;;;12.57;;
32533;SDS011;18973;48.580;8.912;2022-12-18T14:33:09;21.67;;;12.10;;
32533;SDS011;18973;48.580;8.912;2022-12-18T14:35:42;22.50;;;13.77;;
32533;SDS011;18973;48.580;8.912;2022-12-18T14:38:33;20.77;;;12.80;;
32533;SDS011;18973;48.580;8.912;2022-12-18T14:41:04;30.38;;;14.10;;
32533;SDS011;18973;48.580;8.912;2022-12-18T14:43:36;25.77;;;15.48;;
32533;SDS011;18973;48.580;8.912;2022-12-18T14:46:03;25.73;;;14.68;;
32533;SDS011;18973;48.580;8.912;2022-12-18T14:48:40;19.80;;;13.18;;
32533;SDS011;18973;48.580;8.912;2022-12-18T14:53:37;37.67;;;14.55;;
32533;SDS011;18973;48.580;8.912;2022-12-18T14:56:42;22.10;;;12.18;;
32533;SDS011;18973;48.580;8.912;2022-12-18T14:59:21;19.05;;;11.93;;
32533;SDS011;18973;48.580;8.912;2022-12-18T15:01:58;20.08;;;14.05;;
32533;SDS011;18973;48.580;8.912;2022-12-18T15:04:43;20.35;;;15.15;;
32533;SDS011;18973;48.580;8.912;2022-12-18T15:10:01;34.53;;;17.60;;
32533;SDS011;18973;48.580;8.912;2022-12-18T15:12:34;26.17;;;15.52;;
32533;SDS011;18973;48.580;8.912;2022-12-18T15:15:43;23.75;;;16.02;;
32533;SDS011;18973;48.580;8.912;2022-12-18T15:20:33;19.65;;;15.27;;
32533;SDS011;18973;48.580;8.912;2022-12-18T15:23:05;23.58;;;14.80;;
32533;SDS011;18973;48.580;8.912;2022-12-18T15:25:42;28.52;;;16.33;;
32533;SDS011;18973;48.580;8.912;2022-12-18T15:28:24;21.70;;;15.60;;
32533;SDS011;18973;48.580;8.912;2022-12-18T15:33:25;26.83;;;15.48;;
32533;SDS011;18973;48.580;8.912;2022-12-18T15:35:56;25.95;;;15.05;;
32533;SDS011;18973;48.580;8.912;2022-12-18T15:38:26;25.02;;;13.52;;
32533;SDS011;18973;48.580;8.912;2022-12-18T15:40:52;26.77;;;13.63;;
32533;SDS011;18973;48.580;8.912;2022-12-18T15:43:20;21.23;;;12.85;;
32533;SDS011;18973;48.580;8.912;2022-12-18T15:46:03;22.73;;;15.20;;
32533;SDS011;18973;48.580;8.912;2022-12-18T15:48:32;24.92;;;14.68;;
32533;SDS011;18973;48.580;8.912;2022-12-18T15:50:59;24.38;;;13.48;;
32533;SDS011;18973;48.580;8.912;2022-12-18T15:53:29;21.92;;;14.25;;
32533;SDS011;18973;48.580;8.912;2022-12-18T15:55:58;22.52;;;14.57;;
32533;SDS011;18973;48.580;8.912;2022-12-18T15:58:42;23.65;;;14.35;;
32533;SDS011;18973;48.580;8.912;2022-12-18T16:01:08;21.75;;;13.95;;
32533;SDS011;18973;48.580;8.912;2022-12-18T16:03:35;22.27;;;14.82;;
32533;SDS011;18973;48.580;8.912;2022-12-18T16:06:01;18.90;;;13.88;;
32533;SDS011;18973;48.580;8.912;2022-12-18T16:08:30;26.40;;;13.60;;
32533;SDS011;18973;48.580;8.912;2022-12-18T16:10:56;19.77;;;15.30;;
32533;SDS011;18973;48.580;8.912;2022-12-18T16:13:23;24.17;;;14.13;;
32533;SDS011;18973;48.580;8.912;2022-12-18T16:15:49;20.10;;;14.38;;
32533;SDS011;18973;48.580;8.912;2022-12-18T16:18:15;22.83;;;14.25;;
32533;SDS011;18973;48.580;8.912;2022-12-18T16:20:40;28.13;;;17.33;;
32533;SDS011;18973;48.580;8.912;2022-12-18T16:23:06;27.30;;;16.80;;
32533;SDS011;18973;48.580;8.912;2022-12-18T16:25:32;26.83;;;15.40;;
32533;SDS011;18973;48.580;8.912;2022-12-18T16:27:58;19.30;;;13.73;;
32533;SDS011;18973;48.580;8.912;2022-12-18T16:30:25;26.13;;;16.38;;
32533;SDS011;18973;48.580;8.912;2022-12-18T16:32:53;22.33;;;13.90;;
32533;SDS011;18973;48.580;8.912;2022-12-18T16:35:19;24.17;;;14.20;;
32533;SDS011;18973;48.580;8.912;2022-12-18T16:37:45;27.70;;;15.10;;
32533;SDS011;18973;48.580;8.912;2022-12-18T16:40:12;22.52;;;13.80;;
32533;SDS011;18973;48.580;8.912;2022-12-18T16:42:40;23.00;;;13.98;;
32533;SDS011;18973;48.580;8.912;2022-12-18T16:45:13;29.30;;;17.35;;
32533;SDS011;18973;48.580;8.912;2022-12-18T16:47:41;22.30;;;13.68;;
32533;SDS011;18973;48.580;8.912;2022-12-18T16:50:07;24.45;;;14.43;;
32533;SDS011;18973;48.580;8.912;2022-12-18T16:52:34;20.27;;;14.80;;
32533;SDS011;18973;48.580;8.912;2022-12-18T16:55:00;21.88;;;14.38;;
32533;SDS011;18973;48.580;8.912;2022-12-18T16:57:26;23.63;;;16.80;;